createdAt,value
2022-12-18T00:01:32.429Z,18.23
2022-12-18T00:03:59.281Z,19.10
2022-12-18T00:06:26.672Z,19.80
2022-12-18T00:08:53.239Z,19.02
2022-12-18T00:11:20.952Z,22.75
2022-12-18T00:13:47.737Z,22.60
2022-12-18T00:16:15.340Z,19.00
2022-12-18T00:18:42.108Z,22.20
2022-12-18T00:21:09.778Z,21.30
2022-12-18T00:23:37.026Z,21.70
2022-12-18T00:26:05.351Z,21.83
2022-12-18T00:28:31.872Z,20.08
2022-12-18T00:31:02.115Z,22.43
2022-12-18T00:33:28.912Z,18.80
2022-12-18T00:35:55.324Z,21.20
2022-12-18T00:38:21.813Z,21.65
2022-12-18T00:40:49.607Z,22.10
2022-12-18T00:43:15.956Z,20.43
2022-12-18T00:45:42.405Z,19.27
2022-12-18T00:48:08.857Z,19.13
2022-12-18T00:50:35.391Z,20.33
2022-12-18T00:53:01.744Z,19.55
2022-12-18T00:55:28.191Z,23.40
2022-12-18T00:57:54.573Z,17.40
2022-12-18T01:00:21.071Z,23.05
2022-12-18T01:02:47.530Z,24.17
2022-12-18T01:05:14.689Z,22.35
2022-12-18T01:07:41.555Z,22.63
2022-12-18T01:10:08.777Z,21.98
2022-12-18T01:12:35.230Z,23.60
2022-12-18T01:15:01.615Z,24.38
2022-12-18T01:17:27.952Z,23.33
2022-12-18T01:19:54.377Z,23.87
2022-12-18T01:22:20.713Z,25.50
2022-12-18T01:24:47.128Z,28.77
2022-12-18T01:27:13.448Z,25.30
2022-12-18T01:29:39.803Z,23.15
2022-12-18T01:32:06.199Z,23.93
2022-12-18T01:34:32.712Z,21.65
2022-12-18T01:36:59.116Z,21.60
2022-12-18T01:39:26.061Z,19.88
2022-12-18T01:42:07.518Z,20.67
2022-12-18T01:45:06.148Z,20.03
2022-12-18T01:47:41.631Z,17.15
2022-12-18T01:50:29.775Z,18.02
2022-12-18T01:53:00.608Z,18.17
2022-12-18T01:55:28.867Z,17.17
2022-12-18T01:57:56.244Z,17.77
2022-12-18T02:00:23.277Z,17.58
2022-12-18T02:02:49.762Z,19.88
2022-12-18T02:05:18.853Z,19.10
2022-12-18T02:07:59.672Z,21.98
2022-12-18T02:10:44.525Z,18.13
2022-12-18T02:13:20.886Z,17.50
2022-12-18T02:15:47.255Z,18.02
2022-12-18T02:18:21.641Z,17.60
2022-12-18T02:20:50.010Z,18.30
2022-12-18T02:23:16.354Z,20.03
2022-12-18T02:26:01.629Z,17.85
2022-12-18T02:28:31.459Z,19.40
2022-12-18T02:31:00.592Z,19.83
2022-12-18T02:33:28.247Z,17.23
2022-12-18T02:35:55.773Z,17.37
2022-12-18T02:38:22.450Z,16.23
2022-12-18T02:40:49.906Z,18.08
2022-12-18T02:43:16.639Z,15.93
2022-12-18T02:45:50.796Z,15.70
2022-12-18T02:48:18.679Z,16.83
2022-12-18T02:50:53.354Z,16.88
2022-12-18T02:53:30.709Z,16.17
2022-12-18T02:56:04.546Z,18.00
2022-12-18T02:58:36.966Z,18.08
2022-12-18T03:01:22.077Z,13.60
2022-12-18T03:03:53.779Z,15.98
2022-12-18T03:06:27.708Z,16.10
2022-12-18T03:08:57.324Z,15.30
2022-12-18T03:11:46.116Z,17.52
2022-12-18T03:14:14.032Z,16.97
2022-12-18T03:16:42.050Z,14.00
2022-12-18T03:19:12.711Z,16.90
2022-12-18T03:21:45.941Z,16.08
2022-12-18T03:24:12.705Z,16.42
2022-12-18T03:26:41.930Z,16.03
2022-12-18T03:29:10.213Z,17.10
2022-12-18T03:31:38.598Z,14.57
2022-12-18T03:34:14.313Z,16.15
2022-12-18T03:36:41.028Z,14.45
2022-12-18T03:39:07.406Z,16.73
2022-12-18T03:41:35.608Z,16.95
2022-12-18T03:44:21.802Z,17.85
2022-12-18T03:47:08.392Z,15.70
2022-12-18T03:49:37.292Z,15.68
2022-12-18T03:52:04.055Z,16.07
2022-12-18T03:54:31.605Z,16.75
2022-12-18T03:57:05.720Z,17.70
2022-12-18T03:59:32.683Z,17.20
2022-12-18T04:01:59.931Z,16.77
2022-12-18T04:04:26.865Z,18.13
2022-12-18T04:06:53.635Z,17.13
2022-12-18T04:09:20.972Z,17.65
2022-12-18T04:11:48.023Z,16.77
2022-12-18T04:14:17.706Z,15.63
2022-12-18T04:16:44.792Z,14.40
2022-12-18T04:19:11.255Z,16.38
2022-12-18T04:21:37.961Z,17.20
2022-12-18T04:24:04.381Z,16.60
2022-12-18T04:26:30.732Z,16.52
2022-12-18T04:28:57.105Z,17.30
2022-12-18T04:31:23.973Z,17.90
2022-12-18T04:33:50.404Z,18.88
2022-12-18T04:36:16.818Z,13.13
2022-12-18T04:38:43.220Z,15.45
2022-12-18T04:41:09.559Z,15.13
2022-12-18T04:43:36.208Z,15.10
2022-12-18T04:46:04.013Z,13.95
2022-12-18T04:48:30.462Z,14.55
2022-12-18T04:50:56.768Z,13.35
2022-12-18T04:53:23.249Z,15.87
2022-12-18T04:55:49.614Z,13.60
2022-12-18T04:58:16.117Z,13.88
2022-12-18T05:00:42.558Z,14.98
2022-12-18T05:03:08.956Z,14.73
2022-12-18T05:05:36.124Z,14.97
2022-12-18T05:08:02.509Z,14.80
2022-12-18T05:10:34.767Z,16.70
2022-12-18T05:13:04.118Z,13.48
2022-12-18T05:15:31.177Z,14.32
2022-12-18T05:17:58.109Z,13.27
2022-12-18T05:20:24.885Z,13.38
2022-12-18T05:22:51.508Z,15.05
2022-12-18T05:25:17.959Z,14.00
2022-12-18T05:27:44.516Z,13.45
2022-12-18T05:30:11.134Z,12.70
2022-12-18T05:32:37.747Z,12.32
2022-12-18T05:35:04.568Z,13.20
2022-12-18T05:37:30.899Z,11.85
2022-12-18T05:39:57.293Z,10.90
2022-12-18T05:42:23.675Z,13.53
2022-12-18T05:44:50.105Z,10.25
2022-12-18T05:47:16.656Z,12.25
2022-12-18T05:49:43.085Z,11.80
2022-12-18T05:52:09.939Z,11.00
2022-12-18T05:54:36.298Z,11.27
2022-12-18T05:57:02.739Z,10.90
2022-12-18T05:59:29.110Z,11.25
2022-12-18T06:01:55.566Z,10.85
2022-12-18T06:04:22.020Z,9.00
2022-12-18T06:06:48.396Z,10.93
2022-12-18T06:09:14.798Z,10.88
2022-12-18T06:11:41.131Z,11.40
2022-12-18T06:14:07.768Z,11.38
2022-12-18T06:16:34.222Z,11.10
2022-12-18T06:19:01.968Z,10.88
2022-12-18T06:21:29.001Z,10.43
2022-12-18T06:23:55.446Z,8.63
2022-12-18T06:26:27.592Z,10.00
2022-12-18T06:28:54.626Z,9.57
2022-12-18T06:31:21.102Z,7.72
2022-12-18T06:33:47.552Z,8.73
2022-12-18T06:36:14.549Z,10.77
2022-12-18T06:38:43.207Z,9.52
2022-12-18T06:41:09.704Z,10.15
2022-12-18T06:43:36.350Z,9.63
2022-12-18T06:46:04.275Z,9.23
2022-12-18T06:48:30.921Z,10.23
2022-12-18T06:50:57.358Z,9.50
2022-12-18T06:53:23.899Z,8.30
2022-12-18T06:55:50.270Z,8.07
2022-12-18T06:58:16.632Z,7.30
2022-12-18T07:00:43.230Z,10.10
2022-12-18T07:03:11.599Z,7.88
2022-12-18T07:05:41.938Z,9.05
2022-12-18T07:08:08.370Z,6.25
2022-12-18T07:10:35.057Z,7.22
2022-12-18T07:13:01.425Z,6.70
2022-12-18T07:15:27.798Z,7.65
2022-12-18T07:17:54.130Z,8.48
2022-12-18T07:20:20.450Z,8.50
2022-12-18T07:22:48.875Z,8.48
2022-12-18T07:25:17.356Z,4.37
2022-12-18T07:27:43.716Z,6.35
2022-12-18T07:30:10.676Z,7.97
2022-12-18T07:32:37.004Z,7.68
2022-12-18T07:35:03.533Z,4.47
2022-12-18T07:37:29.902Z,6.07
2022-12-18T07:39:56.303Z,6.72
2022-12-18T07:42:31.393Z,5.85
2022-12-18T07:44:58.099Z,5.93
2022-12-18T07:47:25.044Z,6.53
2022-12-18T07:49:51.486Z,5.40
2022-12-18T07:52:21.416Z,7.95
2022-12-18T07:54:50.993Z,6.15
2022-12-18T07:57:41.776Z,6.82
2022-12-18T08:00:04.680Z,6.57
2022-12-18T08:02:33.992Z,7.57
2022-12-18T08:05:01.132Z,4.50
2022-12-18T08:07:27.475Z,5.60
2022-12-18T08:09:53.848Z,5.72
2022-12-18T08:12:20.250Z,4.97
2022-12-18T08:14:46.612Z,5.03
2022-12-18T08:17:12.976Z,6.13
2022-12-18T08:19:39.366Z,6.35
2022-12-18T08:22:05.700Z,6.10
2022-12-18T08:24:32.502Z,6.30
2022-12-18T08:27:27.833Z,6.20
2022-12-18T08:29:45.288Z,8.02
2022-12-18T08:32:11.729Z,8.20
2022-12-18T08:34:38.079Z,6.43
2022-12-18T08:37:04.555Z,3.83
2022-12-18T08:39:30.866Z,7.37
2022-12-18T08:42:15.784Z,5.90
2022-12-18T08:44:42.490Z,6.70
2022-12-18T08:47:09.206Z,5.35
2022-12-18T08:49:35.894Z,6.20
2022-12-18T08:52:03.669Z,6.50
2022-12-18T08:54:30.350Z,5.80
2022-12-18T08:56:56.733Z,6.00
2022-12-18T08:59:24.147Z,6.78
2022-12-18T09:01:50.934Z,5.15
2022-12-18T09:04:17.407Z,5.90
2022-12-18T09:06:44.533Z,7.28
2022-12-18T09:09:10.959Z,3.85
2022-12-18T09:11:38.112Z,6.07
2022-12-18T09:14:04.552Z,2.33
2022-12-18T09:16:32.989Z,5.60
2022-12-18T09:19:00.760Z,4.60
2022-12-18T09:21:28.988Z,5.13
2022-12-18T09:23:56.047Z,5.80
2022-12-18T09:26:23.322Z,4.90
2022-12-18T09:28:50.004Z,6.37
2022-12-18T09:31:16.945Z,4.82
2022-12-18T09:33:43.392Z,7.40
2022-12-18T09:36:10.715Z,6.70
2022-12-18T09:38:37.605Z,6.65
2022-12-18T09:41:06.895Z,5.10
2022-12-18T09:44:02.434Z,6.57
2022-12-18T09:46:34.069Z,5.55
2022-12-18T09:49:02.013Z,4.65
2022-12-18T09:51:30.862Z,6.30
2022-12-18T09:54:00.190Z,6.73
2022-12-18T09:56:29.320Z,6.35
2022-12-18T09:58:59.645Z,7.85
2022-12-18T10:01:33.424Z,5.55
2022-12-18T10:04:06.493Z,4.80
2022-12-18T10:06:36.599Z,5.87
2022-12-18T10:09:09.517Z,5.90
2022-12-18T10:11:41.843Z,6.88
2022-12-18T10:14:08.207Z,3.45
2022-12-18T10:16:44.208Z,5.80
2022-12-18T10:19:29.250Z,6.37
2022-12-18T10:22:04.645Z,5.15
2022-12-18T10:24:41.476Z,6.43
2022-12-18T10:27:20.693Z,4.88
2022-12-18T10:29:47.228Z,6.55
2022-12-18T10:32:18.227Z,6.60
2022-12-18T10:34:48.168Z,6.57
2022-12-18T10:37:21.746Z,6.43
2022-12-18T10:40:05.392Z,7.05
2022-12-18T10:42:32.473Z,6.18
2022-12-18T10:45:02.921Z,6.47
2022-12-18T10:47:29.281Z,5.88
2022-12-18T10:49:56.440Z,7.55
2022-12-18T10:52:23.792Z,7.10
2022-12-18T10:54:51.899Z,7.25
2022-12-18T10:57:30.015Z,6.10
2022-12-18T10:59:57.588Z,4.75
2022-12-18T11:02:35.466Z,8.20
2022-12-18T11:05:02.552Z,7.38
2022-12-18T11:07:48.333Z,8.73
2022-12-18T11:10:17.332Z,6.40
2022-12-18T11:12:43.879Z,7.15
2022-12-18T11:15:36.752Z,5.20
2022-12-18T11:18:03.252Z,7.07
2022-12-18T11:20:36.776Z,6.35
2022-12-18T11:23:06.525Z,8.00
2022-12-18T11:25:34.893Z,7.45
2022-12-18T11:28:03.663Z,8.25
2022-12-18T11:30:31.734Z,6.88
2022-12-18T11:33:04.241Z,6.57
2022-12-18T11:35:50.077Z,7.00
2022-12-18T11:38:26.789Z,5.40
2022-12-18T11:40:59.262Z,6.85
2022-12-18T11:43:44.295Z,4.78
2022-12-18T11:46:24.393Z,7.05
2022-12-18T11:48:53.296Z,5.70
2022-12-18T11:51:27.258Z,5.68
2022-12-18T11:53:53.892Z,5.20
2022-12-18T11:56:26.206Z,7.25
2022-12-18T11:58:58.458Z,7.30
2022-12-18T12:01:27.768Z,7.27
2022-12-18T12:04:07.501Z,7.20
2022-12-18T12:06:39.908Z,7.80
2022-12-18T12:09:27.780Z,7.53
2022-12-18T12:12:10.839Z,7.65
2022-12-18T12:14:55.196Z,8.17
2022-12-18T12:17:32.731Z,4.07
2022-12-18T12:20:00.211Z,8.43
2022-12-18T12:22:33.449Z,8.60
2022-12-18T12:24:59.810Z,7.45
2022-12-18T12:27:29.035Z,5.30
2022-12-18T12:29:55.477Z,7.40
2022-12-18T12:32:40.665Z,7.68
2022-12-18T12:35:10.165Z,8.35
2022-12-18T12:37:52.639Z,8.60
2022-12-18T12:40:50.337Z,10.57
2022-12-18T12:43:17.469Z,9.30
2022-12-18T12:45:48.388Z,7.95
2022-12-18T12:48:19.863Z,11.48
2022-12-18T12:50:47.446Z,9.20
2022-12-18T12:53:23.189Z,10.90
2022-12-18T12:55:49.831Z,10.23
2022-12-18T12:58:20.962Z,8.60
2022-12-18T13:00:55.051Z,8.68
2022-12-18T13:03:36.258Z,9.45
2022-12-18T13:06:06.063Z,11.00
2022-12-18T13:08:51.696Z,10.18
2022-12-18T13:11:57.836Z,5.68
2022-12-18T13:14:28.522Z,5.40
2022-12-18T13:17:13.917Z,8.55
2022-12-18T13:19:40.366Z,8.17
2022-12-18T13:22:21.434Z,8.30
2022-12-18T13:24:48.484Z,9.07
2022-12-18T13:27:46.959Z,9.07
2022-12-18T13:30:32.617Z,7.85
2022-12-18T13:33:34.216Z,7.20
2022-12-18T13:36:10.630Z,9.23
2022-12-18T13:38:38.241Z,5.97
2022-12-18T13:41:19.781Z,9.93
2022-12-18T13:43:47.311Z,7.00
2022-12-18T13:46:30.349Z,8.20
2022-12-18T13:48:58.437Z,9.02
2022-12-18T13:51:25.594Z,5.70
2022-12-18T13:53:51.955Z,10.65
2022-12-18T13:56:21.674Z,9.43
2022-12-18T13:59:07.013Z,8.73
2022-12-18T14:01:33.773Z,9.70
2022-12-18T14:04:13.623Z,6.28
2022-12-18T14:06:43.468Z,9.32
2022-12-18T14:09:22.100Z,8.35
2022-12-18T14:11:50.362Z,8.50
2022-12-18T14:14:19.107Z,10.27
2022-12-18T14:16:47.849Z,11.77
2022-12-18T14:19:16.491Z,9.70
2022-12-18T14:21:47.063Z,9.80
2022-12-18T14:24:19.675Z,8.47
2022-12-18T14:26:46.863Z,9.15
2022-12-18T14:29:23.453Z,9.90
2022-12-18T14:32:13.291Z,10.80
2022-12-18T14:34:41.622Z,11.10
2022-12-18T14:37:10.984Z,9.93
2022-12-18T14:39:37.486Z,8.98
2022-12-18T14:42:04.324Z,11.68
2022-12-18T14:44:39.093Z,8.95
2022-12-18T14:47:18.663Z,7.95
2022-12-18T14:49:45.192Z,12.23
2022-12-18T14:52:24.863Z,15.65
2022-12-18T14:54:51.316Z,11.75
2022-12-18T14:57:25.055Z,9.13
2022-12-18T14:59:51.942Z,9.10
2022-12-18T15:02:21.338Z,12.47
2022-12-18T15:04:47.889Z,7.43
2022-12-18T15:07:15.603Z,11.52
2022-12-18T15:09:47.080Z,9.52
2022-12-18T15:12:37.293Z,13.93
2022-12-18T15:15:05.243Z,7.10
2022-12-18T15:17:31.927Z,12.05
2022-12-18T15:20:02.632Z,9.10
2022-12-18T15:22:30.592Z,13.60
2022-12-18T15:24:57.763Z,12.55
2022-12-18T15:27:29.396Z,11.07
2022-12-18T15:30:07.947Z,14.57
2022-12-18T15:32:34.728Z,14.23
2022-12-18T15:35:10.893Z,14.15
2022-12-18T15:37:40.954Z,13.13
2022-12-18T15:40:18.335Z,13.13
2022-12-18T15:43:07.160Z,12.23
2022-12-18T15:45:34.070Z,13.95
2022-12-18T15:48:00.659Z,10.88
2022-12-18T15:50:27.157Z,9.95
2022-12-18T15:52:56.371Z,13.47
2022-12-18T15:56:01.195Z,10.93
2022-12-18T15:58:27.926Z,12.35
2022-12-18T16:00:55.118Z,14.73
2022-12-18T16:03:21.592Z,12.07
2022-12-18T16:05:48.115Z,12.73
2022-12-18T16:08:14.486Z,10.55
2022-12-18T16:10:40.947Z,11.10
2022-12-18T16:13:10.268Z,11.98
2022-12-18T16:15:36.668Z,12.38
2022-12-18T16:18:04.600Z,12.67
2022-12-18T16:20:30.937Z,14.63
2022-12-18T16:22:57.253Z,10.40
2022-12-18T16:25:25.341Z,11.23
2022-12-18T16:27:52.428Z,12.88
2022-12-18T16:30:19.990Z,11.13
2022-12-18T16:32:46.761Z,11.00
2022-12-18T16:35:13.929Z,9.13
2022-12-18T16:37:41.019Z,13.88
2022-12-18T16:40:09.867Z,11.10
2022-12-18T16:42:40.234Z,11.00
2022-12-18T16:45:08.027Z,11.48
2022-12-18T16:47:34.827Z,13.13
2022-12-18T16:50:01.199Z,8.15
2022-12-18T16:52:27.876Z,9.13
2022-12-18T16:54:54.458Z,12.80
2022-12-18T16:57:21.124Z,12.90
2022-12-18T16:59:50.910Z,13.13
2022-12-18T17:02:23.880Z,12.75
2022-12-18T17:04:50.780Z,11.88
2022-12-18T17:07:17.146Z,10.67
2022-12-18T17:09:43.499Z,13.90
2022-12-18T17:12:09.911Z,13.80
2022-12-18T17:14:39.647Z,13.23
2022-12-18T17:17:23.014Z,11.02
2022-12-18T17:19:50.409Z,8.87
2022-12-18T17:22:16.815Z,9.77
2022-12-18T17:24:43.381Z,8.40
2022-12-18T17:27:09.735Z,9.27
2022-12-18T17:29:36.141Z,8.90
2022-12-18T17:32:02.558Z,12.40
2022-12-18T17:34:29.057Z,11.32
2022-12-18T17:36:56.538Z,12.50
2022-12-18T17:39:22.906Z,12.82
2022-12-18T17:41:49.928Z,11.93
2022-12-18T17:44:16.698Z,11.43
2022-12-18T17:46:43.771Z,11.77
2022-12-18T17:49:11.023Z,9.48
2022-12-18T17:51:37.740Z,10.40
2022-12-18T17:54:05.423Z,11.70
2022-12-18T17:56:32.929Z,13.57
2022-12-18T17:58:59.451Z,13.15
2022-12-18T18:01:26.381Z,14.20
2022-12-18T18:03:56.003Z,14.27
2022-12-18T18:06:23.089Z,13.80
2022-12-18T18:08:49.891Z,9.10
2022-12-18T18:11:36.381Z,10.70
2022-12-18T18:14:05.960Z,11.40
2022-12-18T18:16:34.338Z,11.80
2022-12-18T18:19:01.574Z,9.88
2022-12-18T18:21:28.582Z,13.17
2022-12-18T18:23:55.635Z,9.55
2022-12-18T18:26:22.507Z,12.20
2022-12-18T18:28:54.350Z,11.88
2022-12-18T18:31:20.887Z,11.68
2022-12-18T18:33:47.301Z,14.60
2022-12-18T18:36:13.822Z,11.80
2022-12-18T18:38:45.395Z,11.02
2022-12-18T18:41:14.982Z,13.38
2022-12-18T18:43:42.555Z,9.27
2022-12-18T18:46:12.606Z,12.33
2022-12-18T18:48:42.480Z,13.25
2022-12-18T18:51:14.682Z,14.10
2022-12-18T18:53:47.721Z,13.07
2022-12-18T18:59:02.160Z,11.97
2022-12-18T19:01:28.647Z,11.63
2022-12-18T19:03:55.285Z,8.88
2022-12-18T19:06:26.569Z,13.18
2022-12-18T19:08:54.296Z,13.70
2022-12-18T19:11:39.876Z,13.30
2022-12-18T19:14:07.610Z,7.97
2022-12-18T19:16:35.053Z,10.15
2022-12-18T19:19:02.704Z,12.18
2022-12-18T19:21:31.405Z,12.77
2022-12-18T19:24:01.093Z,10.93
2022-12-18T19:26:28.763Z,10.13
2022-12-18T19:29:00.222Z,13.18
2022-12-18T19:31:31.773Z,11.70
2022-12-18T19:34:01.744Z,10.30
2022-12-18T19:36:29.220Z,13.18
2022-12-18T19:38:56.850Z,8.00
2022-12-18T19:41:23.645Z,12.88
2022-12-18T19:43:52.541Z,12.80
2022-12-18T19:46:23.053Z,13.80
2022-12-18T19:48:49.932Z,12.60
2022-12-18T19:51:18.067Z,16.50
2022-12-18T19:53:44.886Z,14.95
2022-12-18T19:56:14.476Z,10.47
2022-12-18T19:58:41.323Z,14.07
2022-12-18T20:01:11.379Z,12.50
2022-12-18T20:03:40.511Z,15.00
2022-12-18T20:06:13.586Z,11.93
2022-12-18T20:08:40.081Z,13.40
2022-12-18T20:11:06.719Z,12.95
2022-12-18T20:13:33.786Z,10.07
2022-12-18T20:16:00.330Z,14.55
2022-12-18T20:18:26.786Z,13.18
2022-12-18T20:20:53.504Z,12.70
2022-12-18T20:23:22.812Z,13.75
2022-12-18T20:25:49.647Z,15.82
2022-12-18T20:28:16.102Z,13.75
2022-12-18T20:30:42.716Z,14.15
2022-12-18T20:33:09.127Z,13.27
2022-12-18T20:35:35.615Z,11.70
2022-12-18T20:38:02.506Z,13.80
2022-12-18T20:40:29.637Z,14.18
2022-12-18T20:42:55.964Z,11.30
2022-12-18T20:45:22.517Z,12.57
2022-12-18T20:47:48.945Z,16.13
2022-12-18T20:50:15.517Z,14.02
2022-12-18T20:52:41.936Z,12.48
2022-12-18T20:55:08.526Z,12.73
2022-12-18T20:57:34.952Z,11.27
2022-12-18T21:00:05.220Z,10.02
2022-12-18T21:02:31.754Z,11.57
2022-12-18T21:04:58.279Z,14.90
2022-12-18T21:07:24.752Z,13.38
2022-12-18T21:09:51.140Z,14.43
2022-12-18T21:12:44.033Z,14.38
2022-12-18T21:15:28.828Z,10.80
2022-12-18T21:17:55.502Z,14.40
2022-12-18T21:20:21.871Z,12.48
2022-12-18T21:22:49.449Z,12.57
2022-12-18T21:25:15.980Z,10.45
2022-12-18T21:27:42.381Z,13.80
2022-12-18T21:30:09.015Z,12.63
2022-12-18T21:32:35.771Z,12.57
2022-12-18T21:35:04.968Z,14.30
2022-12-18T21:37:31.333Z,9.88
2022-12-18T21:39:57.894Z,13.55
2022-12-18T21:42:43.065Z,11.93
2022-12-18T21:45:09.637Z,12.45
2022-12-18T21:47:36.033Z,11.10
2022-12-18T21:50:02.357Z,8.98
2022-12-18T21:52:32.112Z,12.70
2022-12-18T21:55:06.172Z,11.77
2022-12-18T21:57:35.243Z,13.98
2022-12-18T22:00:02.262Z,13.33
2022-12-18T22:02:28.787Z,9.70
2022-12-18T22:04:55.332Z,11.75
2022-12-18T22:07:21.760Z,12.35
2022-12-18T22:09:50.565Z,14.27
2022-12-18T22:12:35.301Z,9.00
2022-12-18T22:15:03.152Z,13.98
2022-12-18T22:17:29.584Z,9.15
2022-12-18T22:19:57.041Z,12.45
2022-12-18T22:22:23.466Z,11.27
2022-12-18T22:24:49.942Z,12.33
2022-12-18T22:27:16.301Z,10.50
2022-12-18T22:30:01.164Z,10.68
2022-12-18T22:32:31.254Z,11.70
2022-12-18T22:35:04.590Z,13.90
2022-12-18T22:37:32.593Z,12.53
2022-12-18T22:39:58.989Z,10.35
2022-12-18T22:42:29.094Z,11.77
2022-12-18T22:44:55.489Z,10.63
2022-12-18T22:47:24.298Z,9.15
2022-12-18T22:49:54.321Z,10.27
2022-12-18T22:52:20.668Z,9.38
2022-12-18T22:54:49.782Z,11.20
2022-12-18T22:57:16.160Z,12.23
2022-12-18T22:59:42.496Z,13.50
2022-12-18T23:02:09.049Z,11.88
2022-12-18T23:04:36.949Z,12.05
2022-12-18T23:07:06.429Z,12.15
2022-12-18T23:09:33.183Z,12.27
2022-12-18T23:11:59.592Z,12.30
2022-12-18T23:14:26.026Z,12.02
2022-12-18T23:16:53.029Z,11.68
2022-12-18T23:19:19.904Z,11.35
2022-12-18T23:21:46.335Z,11.18
2022-12-18T23:24:12.742Z,10.40
2022-12-18T23:26:39.214Z,8.32
2022-12-18T23:29:05.782Z,11.13
2022-12-18T23:31:33.648Z,11.02
2022-12-18T23:34:00.689Z,9.55
2022-12-18T23:36:27.463Z,6.95
2022-12-18T23:38:55.372Z,10.77
2022-12-18T23:41:22.665Z,10.85
2022-12-18T23:43:49.351Z,10.95
2022-12-18T23:46:18.578Z,10.27
2022-12-18T23:48:45.122Z,9.02
2022-12-18T23:51:12.758Z,12.70
2022-12-18T23:53:39.154Z,10.73
2022-12-18T23:56:09.173Z,10.63
2022-12-18T23:58:35.975Z,11.30
